Cedarfalls, Iowa
Current Conditions -  °F | °C
As of 4:54 AM on Thursday 23 Oct 2014 (Local Time) from KALO Reporting Station
Light Rain Light Rain  
Wind Chill:   Ceiling: 7500
Heat Index:   Visibility: 10mi
Dew Point:   Wind: 12mph
Humidity: 89%   Direction: 150°SSE
Pressure: 30.08"   Gusts: NA
Location:  42.5035°N, 92.4936°W
Report Text: KALO 230954Z 15010KT 10SM -RA SCT047 BKN075 OVC090 09/07 A3008 RMK AO2 SLP187 P0012 T00890072
Loading
Personal Weather Stations






























Interactive Weather Map
Tropical Storm Tracking
New forecast layout! Learn more

10-Day Weather Forecast

Advertisements
Track Severe Weather on mobile